sensor_id;sensor_type;location;lat;lon;timestamp;pressure;altitude;pressure_sealevel;temperature;humidity
6034;BME280;3045;43.226;27.858;2023-02-04T00:00:13;78661.66;;;0.91;100.00
6034;BME280;3045;43.226;27.858;2023-02-04T00:02:40;79352.31;;;1.25;100.00
6034;BME280;3045;43.226;27.858;2023-02-04T00:05:09;85493.34;;;1.34;100.00
6034;BME280;3045;43.226;27.858;2023-02-04T00:07:36;91003.22;;;1.45;100.00
6034;BME280;3045;43.226;27.858;2023-02-04T00:10:05;106207.22;;;1.27;100.00
6034;BME280;3045;43.226;27.858;2023-02-04T00:12:33;114167.19;;;1.22;100.00
6034;BME280;3045;43.226;27.858;2023-02-04T00:15:01;111976.69;;;1.37;100.00
6034;BME280;3045;43.226;27.858;2023-02-04T00:17:28;120281.59;;;1.42;100.00
6034;BME280;3045;43.226;27.858;2023-02-04T00:19:54;126533.88;;;1.38;100.00
6034;BME280;3045;43.226;27.858;2023-02-04T00:22:21;123452.69;;;1.24;100.00
6034;BME280;3045;43.226;27.858;2023-02-04T00:24:48;122279.81;;;1.39;100.00
6034;BME280;3045;43.226;27.858;2023-02-04T00:27:15;126018.66;;;1.11;100.00
6034;BME280;3045;43.226;27.858;2023-02-04T00:29:43;122805.50;;;1.38;100.00
6034;BME280;3045;43.226;27.858;2023-02-04T00:32:10;102607.38;;;1.10;100.00
6034;BME280;3045;43.226;27.858;2023-02-04T00:34:37;97107.63;;;1.16;100.00
6034;BME280;3045;43.226;27.858;2023-02-04T00:37:04;97754.59;;;1.16;100.00
6034;BME280;3045;43.226;27.858;2023-02-04T00:39:31;95165.72;;;1.17;100.00
6034;BME280;3045;43.226;27.858;2023-02-04T00:41:58;96141.91;;;1.20;100.00
6034;BME280;3045;43.226;27.858;2023-02-04T00:44:25;98124.09;;;1.43;100.00
6034;BME280;3045;43.226;27.858;2023-02-04T00:46:53;98738.44;;;1.23;100.00
6034;BME280;3045;43.226;27.858;2023-02-04T00:49:20;100688.56;;;1.26;100.00
6034;BME280;3045;43.226;27.858;2023-02-04T00:51:47;104302.03;;;1.51;100.00
6034;BME280;3045;43.226;27.858;2023-02-04T00:54:14;109189.53;;;1.58;100.00
6034;BME280;3045;43.226;27.858;2023-02-04T00:56:41;122843.97;;;1.58;100.00
6034;BME280;3045;43.226;27.858;2023-02-04T00:59:08;127941.47;;;1.79;100.00
6034;BME280;3045;43.226;27.858;2023-02-04T01:01:35;137346.69;;;1.81;100.00
6034;BME280;3045;43.226;27.858;2023-02-04T01:04:04;146133.72;;;2.07;100.00
6034;BME280;3045;43.226;27.858;2023-02-04T01:06:31;146622.28;;;2.24;100.00
6034;BME280;3045;43.226;27.858;2023-02-04T01:08:58;146641.09;;;2.32;100.00
6034;BME280;3045;43.226;27.858;2023-02-04T01:11:25;146678.72;;;2.47;100.00
6034;BME280;3045;43.226;27.858;2023-02-04T01:13:52;146746.56;;;2.74;100.00
6034;BME280;3045;43.226;27.858;2023-02-04T01:16:19;146765.38;;;2.82;100.00
6034;BME280;3045;43.226;27.858;2023-02-04T01:18:46;146782.94;;;2.89;100.00
6034;BME280;3045;43.226;27.858;2023-02-04T01:21:14;146804.28;;;2.97;100.00
6034;BME280;3045;43.226;27.858;2023-02-04T01:23:41;146809.34;;;2.99;100.00
6034;BME280;3045;43.226;27.858;2023-02-04T01:26:08;146836.97;;;3.10;100.00
6034;BME280;3045;43.226;27.858;2023-02-04T01:28:35;146850.78;;;3.16;100.00
6034;BME280;3045;43.226;27.858;2023-02-04T01:31:02;146840.75;;;3.12;100.00
6034;BME280;3045;43.226;27.858;2023-02-04T01:33:28;146872.16;;;3.25;100.00
6034;BME280;3045;43.226;27.858;2023-02-04T01:35:55;146892.25;;;3.33;100.00
6034;BME280;3045;43.226;27.858;2023-02-04T01:38:24;146902.28;;;3.37;100.00
6034;BME280;3045;43.226;27.858;2023-02-04T01:40:51;146945.00;;;3.54;100.00
6034;BME280;3045;43.226;27.858;2023-02-04T01:43:18;146962.59;;;3.61;100.00
6034;BME280;3045;43.226;27.858;2023-02-04T01:45:47;146975.16;;;3.66;100.00
6034;BME280;3045;43.226;27.858;2023-02-04T01:48:14;146989.00;;;3.72;100.00
6034;BME280;3045;43.226;27.858;2023-02-04T01:50:45;146987.75;;;3.71;100.00
6034;BME280;3045;43.226;27.858;2023-02-04T01:53:12;146997.78;;;3.75;100.00
6034;BME280;3045;43.226;27.858;2023-02-04T01:55:42;146967.63;;;3.63;100.00
6034;BME280;3045;43.226;27.858;2023-02-04T01:58:09;146985.22;;;3.70;100.00
6034;BME280;3045;43.226;27.858;2023-02-04T02:00:38;146980.22;;;3.68;100.00
6034;BME280;3045;43.226;27.858;2023-02-04T02:03:06;146962.59;;;3.61;100.00
6034;BME280;3045;43.226;27.858;2023-02-04T02:05:37;146927.44;;;3.47;100.00
6034;BME280;3045;43.226;27.858;2023-02-04T02:08:06;146960.13;;;3.60;100.00
6034;BME280;3045;43.226;27.858;2023-02-04T02:10:35;146975.16;;;3.66;100.00
6034;BME280;3045;43.226;27.858;2023-02-04T02:13:04;146994.00;;;3.74;100.00
6034;BME280;3045;43.226;27.858;2023-02-04T02:15:33;147012.91;;;3.81;100.00
6034;BME280;3045;43.226;27.858;2023-02-04T02:18:00;147004.09;;;3.78;100.00
6034;BME280;3045;43.226;27.858;2023-02-04T02:20:27;147031.75;;;3.89;100.00
6034;BME280;3045;43.226;27.858;2023-02-04T02:23:01;147011.63;;;3.81;100.00
6034;BME280;3045;43.226;27.858;2023-02-04T02:25:30;147031.75;;;3.89;100.00
6034;BME280;3045;43.226;27.858;2023-02-04T02:27:58;147055.66;;;3.98;100.00
6034;BME280;3045;43.226;27.858;2023-02-04T02:30:26;147005.31;;;3.78;100.00
6034;BME280;3045;43.226;27.858;2023-02-04T02:32:54;146975.16;;;3.66;100.00
6034;BME280;3045;43.226;27.858;2023-02-04T02:35:21;146992.78;;;3.73;100.00
6034;BME280;3045;43.226;27.858;2023-02-04T02:37:48;146977.69;;;3.67;100.00
6034;BME280;3045;43.226;27.858;2023-02-04T02:40:16;146980.22;;;3.68;100.00
6034;BME280;3045;43.226;27.858;2023-02-04T02:42:47;147005.31;;;3.78;100.00
6034;BME280;3045;43.226;27.858;2023-02-04T02:45:21;146965.13;;;3.62;100.00
6034;BME280;3045;43.226;27.858;2023-02-04T02:47:49;146953.81;;;3.57;100.00
6034;BME280;3045;43.226;27.858;2023-02-04T02:50:19;146922.38;;;3.45;100.00
6034;BME280;3045;43.226;27.858;2023-02-04T02:52:46;146880.94;;;3.28;100.00
6034;BME280;3045;43.226;27.858;2023-02-04T02:55:15;146877.19;;;3.27;100.00
6034;BME280;3045;43.226;27.858;2023-02-04T02:57:45;146921.13;;;3.44;100.00
6034;BME280;3045;43.226;27.858;2023-02-04T03:00:14;146943.75;;;3.53;100.00
6034;BME280;3045;43.226;27.858;2023-02-04T03:02:42;146951.31;;;3.56;100.00
6034;BME280;3045;43.226;27.858;2023-02-04T03:05:11;146960.13;;;3.60;100.00
6034;BME280;3045;43.226;27.858;2023-02-04T03:07:38;146947.53;;;3.55;100.00
6034;BME280;3045;43.226;27.858;2023-02-04T03:10:05;146965.13;;;3.62;100.00
6034;BME280;3045;43.226;27.858;2023-02-04T03:12:32;146995.28;;;3.74;100.00
6034;BME280;3045;43.226;27.858;2023-02-04T03:15:01;146977.69;;;3.67;100.00
6034;BME280;3045;43.226;27.858;2023-02-04T03:17:28;146976.44;;;3.66;100.00
6034;BME280;3045;43.226;27.858;2023-02-04T03:19:56;146922.38;;;3.45;100.00
6034;BME280;3045;43.226;27.858;2023-02-04T03:22:23;146894.78;;;3.34;100.00
6034;BME280;3045;43.226;27.858;2023-02-04T03:24:50;146878.41;;;3.27;100.00
6034;BME280;3045;43.226;27.858;2023-02-04T03:27:17;146889.72;;;3.32;100.00
6034;BME280;3045;43.226;27.858;2023-02-04T03:29:45;146897.28;;;3.35;100.00
6034;BME280;3045;43.226;27.858;2023-02-04T03:32:13;146874.66;;;3.26;100.00
6034;BME280;3045;43.226;27.858;2023-02-04T03:34:40;146897.28;;;3.35;100.00
6034;BME280;3045;43.226;27.858;2023-02-04T03:37:07;146948.81;;;3.55;100.00
6034;BME280;3045;43.226;27.858;2023-02-04T03:39:34;146957.59;;;3.59;100.00
6034;BME280;3045;43.226;27.858;2023-02-04T03:42:01;146906.06;;;3.38;100.00
6034;BME280;3045;43.226;27.858;2023-02-04T03:44:27;146952.53;;;3.57;100.00
6034;BME280;3045;43.226;27.858;2023-02-04T03:46:54;146943.75;;;3.53;100.00
6034;BME280;3045;43.226;27.858;2023-02-04T03:49:23;146943.75;;;3.53;100.00
6034;BME280;3045;43.226;27.858;2023-02-04T03:51:50;146947.53;;;3.55;100.00
6034;BME280;3045;43.226;27.858;2023-02-04T03:54:17;146912.34;;;3.41;100.00
6034;BME280;3045;43.226;27.858;2023-02-04T03:56:44;146938.75;;;3.51;100.00
6034;BME280;3045;43.226;27.858;2023-02-04T03:59:11;146957.59;;;3.59;100.00
6034;BME280;3045;43.226;27.858;2023-02-04T04:01:37;146958.84;;;3.59;100.00
6034;BME280;3045;43.226;27.858;2023-02-04T04:04:04;146938.75;;;3.51;100.00
6034;BME280;3045;43.226;27.858;2023-02-04T04:06:32;143680.94;;;3.44;100.00
6034;BME280;3045;43.226;27.858;2023-02-04T04:08:59;133484.81;;;3.50;100.00
6034;BME280;3045;43.226;27.858;2023-02-04T04:11:26;115738.59;;;3.44;100.00
6034;BME280;3045;43.226;27.858;2023-02-04T04:13:53;108238.16;;;3.49;100.00
6034;BME280;3045;43.226;27.858;2023-02-04T04:16:20;106954.00;;;3.60;100.00
6034;BME280;3045;43.226;27.858;2023-02-04T04:18:47;108582.00;;;3.58;100.00
6034;BME280;3045;43.226;27.858;2023-02-04T04:21:14;100766.47;;;3.61;100.00
6034;BME280;3045;43.226;27.858;2023-02-04T04:23:42;98809.72;;;3.59;100.00
6034;BME280;3045;43.226;27.858;2023-02-04T04:26:09;102706.91;;;3.54;100.00
6034;BME280;3045;43.226;27.858;2023-02-04T04:28:36;100398.78;;;3.37;100.00
6034;BME280;3045;43.226;27.858;2023-02-04T04:31:03;100767.34;;;3.62;100.00
6034;BME280;3045;43.226;27.858;2023-02-04T04:33:29;106657.16;;;3.76;100.00
6034;BME280;3045;43.226;27.858;2023-02-04T04:35:56;114191.88;;;3.89;100.00
6034;BME280;3045;43.226;27.858;2023-02-04T04:38:23;118438.22;;;3.86;100.00
6034;BME280;3045;43.226;27.858;2023-02-04T04:40:52;118104.88;;;3.83;100.00
6034;BME280;3045;43.226;27.858;2023-02-04T04:43:19;120429.31;;;3.99;100.00
6034;BME280;3045;43.226;27.858;2023-02-04T04:45:46;128240.63;;;4.05;100.00
6034;BME280;3045;43.226;27.858;2023-02-04T04:48:13;133499.13;;;4.04;100.00
6034;BME280;3045;43.226;27.858;2023-02-04T04:50:40;126163.41;;;3.93;100.00
6034;BME280;3045;43.226;27.858;2023-02-04T04:53:06;119772.25;;;3.98;100.00
6034;BME280;3045;43.226;27.858;2023-02-04T04:55:35;108989.44;;;4.02;100.00
6034;BME280;3045;43.226;27.858;2023-02-04T04:58:04;109644.34;;;4.03;100.00
6034;BME280;3045;43.226;27.858;2023-02-04T05:00:31;109978.44;;;4.07;100.00
6034;BME280;3045;43.226;27.858;2023-02-04T05:02:58;109634.97;;;3.98;100.00
6034;BME280;3045;43.226;27.858;2023-02-04T05:05:25;108038.72;;;4.18;100.00
6034;BME280;3045;43.226;27.858;2023-02-04T05:07:52;109689.44;;;4.28;100.00
6034;BME280;3045;43.226;27.858;2023-02-04T05:10:19;110344.75;;;4.29;100.00
6034;BME280;3045;43.226;27.858;2023-02-04T05:12:46;107072.22;;;4.25;100.00
6034;BME280;3045;43.226;27.858;2023-02-04T05:15:14;108060.00;;;4.30;100.00
6034;BME280;3045;43.226;27.858;2023-02-04T05:17:41;106106.69;;;4.33;100.00
6034;BME280;3045;43.226;27.858;2023-02-04T05:20:09;110356.09;;;4.35;100.00
6034;BME280;3045;43.226;27.858;2023-02-04T05:22:35;110682.91;;;4.35;100.00
6034;BME280;3045;43.226;27.858;2023-02-04T05:25:02;111352.81;;;4.43;100.00
6034;BME280;3045;43.226;27.858;2023-02-04T05:27:29;111354.75;;;4.44;100.00
6034;BME280;3045;43.226;27.858;2023-02-04T05:29:56;113004.31;;;4.52;100.00
6034;BME280;3045;43.226;27.858;2023-02-04T05:32:24;114940.13;;;4.38;100.00
6034;BME280;3045;43.226;27.858;2023-02-04T05:34:51;111695.06;;;4.51;100.00
6034;BME280;3045;43.226;27.858;2023-02-04T05:37:18;107412.50;;;4.33;100.00
6034;BME280;3045;43.226;27.858;2023-02-04T05:39:45;96005.75;;;4.34;100.00
6034;BME280;3045;43.226;27.858;2023-02-04T05:42:12;92740.84;;;4.27;100.00
6034;BME280;3045;43.226;27.858;2023-02-04T05:44:39;88172.66;;;4.13;100.00
6034;BME280;3045;43.226;27.858;2023-02-04T05:47:06;81671.16;;;4.02;100.00
6034;BME280;3045;43.226;27.858;2023-02-04T05:49:34;73257.81;;;4.01;100.00
6034;BME280;3045;43.226;27.858;2023-02-04T05:52:02;68740.41;;;4.04;100.00
6034;BME280;3045;43.226;27.858;2023-02-04T05:54:29;66484.38;;;4.06;100.00
6034;BME280;3045;43.226;27.858;2023-02-04T05:56:59;66158.41;;;4.03;100.00
6034;BME280;3045;43.226;27.858;2023-02-04T05:59:26;63242.53;;;3.90;100.00
6034;BME280;3045;43.226;27.858;2023-02-04T06:01:52;58733.09;;;3.87;100.00
6034;BME280;3045;43.226;27.858;2023-02-04T06:04:19;53910.69;;;3.87;100.00
6034;BME280;3045;43.226;27.858;2023-02-04T06:06:47;46525.91;;;3.81;100.00
6034;BME280;3045;43.226;27.858;2023-02-04T06:09:14;42352.97;;;3.69;100.00
6034;BME280;3045;43.226;27.858;2023-02-04T06:11:41;38825.34;;;3.56;100.00
6034;BME280;3045;43.226;27.858;2023-02-04T06:14:08;36917.94;;;3.71;100.00
6034;BME280;3045;43.226;27.858;2023-02-04T06:16:35;37247.44;;;3.86;100.00
6034;BME280;3045;43.226;27.858;2023-02-04T06:19:02;37251.44;;;3.92;100.00
6034;BME280;3045;43.226;27.858;2023-02-04T06:21:29;37252.09;;;3.93;100.00
6034;BME280;3045;43.226;27.858;2023-02-04T06:23:57;37892.88;;;3.95;100.00
6034;BME280;3045;43.226;27.858;2023-02-04T06:26:24;37573.13;;;3.95;100.00
6034;BME280;3045;43.226;27.858;2023-02-04T06:28:51;37315.22;;;3.79;100.00
6034;BME280;3045;43.226;27.858;2023-02-04T06:31:18;36651.97;;;3.88;100.00
6034;BME280;3045;43.226;27.858;2023-02-04T06:33:45;37210.50;;;3.83;100.00
6034;BME280;3045;43.226;27.858;2023-02-04T06:36:12;37401.13;;;3.96;100.00
6034;BME280;3045;43.226;27.858;2023-02-04T06:38:39;37893.56;;;3.96;100.00
6034;BME280;3045;43.226;27.858;2023-02-04T06:41:07;37866.94;;;4.01;100.00
6034;BME280;3045;43.226;27.858;2023-02-04T06:43:34;39556.94;;;4.02;100.00
6034;BME280;3045;43.226;27.858;2023-02-04T06:46:01;40686.94;;;4.02;100.00
6034;BME280;3045;43.226;27.858;2023-02-04T06:48:27;40375.47;;;4.04;100.00
6034;BME280;3045;43.226;27.858;2023-02-04T06:50:54;40454.75;;;3.99;100.00
6034;BME280;3045;43.226;27.858;2023-02-04T06:53:21;38505.56;;;4.00;100.00
6034;BME280;3045;43.226;27.858;2023-02-04T06:55:48;37607.94;;;3.91;100.00
6034;BME280;3045;43.226;27.858;2023-02-04T06:58:17;35972.91;;;3.88;100.00
6034;BME280;3045;43.226;27.858;2023-02-04T07:00:44;34824.47;;;3.96;100.00
6034;BME280;3045;43.226;27.858;2023-02-04T07:03:11;35190.09;;;3.94;100.00
6034;BME280;3045;43.226;27.858;2023-02-04T07:05:38;37258.78;;;3.88;100.00
6034;BME280;3045;43.226;27.858;2023-02-04T07:08:05;34626.44;;;3.70;100.00
6034;BME280;3045;43.226;27.858;2023-02-04T07:10:32;32203.91;;;3.90;100.00
6034;BME280;3045;43.226;27.858;2023-02-04T07:12:59;30498.97;;;3.90;100.00
6034;BME280;3045;43.226;27.858;2023-02-04T07:15:27;28778.38;;;3.88;100.00
6034;BME280;3045;43.226;27.858;2023-02-04T07:17:54;28639.13;;;3.98;100.00
6034;BME280;3045;43.226;27.858;2023-02-04T07:20:20;29025.69;;;4.03;100.00
6034;BME280;3045;43.226;27.858;2023-02-04T07:22:47;28912.66;;;4.06;100.00
6034;BME280;3045;43.226;27.858;2023-02-04T07:25:14;29234.03;;;4.11;100.00
6034;BME280;3045;43.226;27.858;2023-02-04T07:27:42;30444.94;;;4.05;100.00
6034;BME280;3045;43.226;27.858;2023-02-04T07:30:10;32535.25;;;4.15;100.00
6034;BME280;3045;43.226;27.858;2023-02-04T07:32:38;32409.00;;;4.21;100.00
6034;BME280;3045;43.226;27.858;2023-02-04T07:35:06;31926.47;;;4.24;100.00
6034;BME280;3045;43.226;27.858;2023-02-04T07:37:33;31143.78;;;4.29;100.00
6034;BME280;3045;43.226;27.858;2023-02-04T07:40:00;30562.34;;;4.29;100.00
6034;BME280;3045;43.226;27.858;2023-02-04T07:42:26;29987.06;;;4.35;100.00
6034;BME280;3045;43.226;27.858;2023-02-04T07:44:53;30785.19;;;4.39;100.00
6034;BME280;3045;43.226;27.858;2023-02-04T07:47:20;31781.53;;;4.41;100.00
6034;BME280;3045;43.226;27.858;2023-02-04T07:49:48;32503.66;;;4.34;100.00
6034;BME280;3045;43.226;27.858;2023-02-04T07:52:16;33034.31;;;4.45;100.00
6034;BME280;3045;43.226;27.858;2023-02-04T07:54:43;33088.41;;;4.52;100.00
6034;BME280;3045;43.226;27.858;2023-02-04T07:57:09;34142.31;;;4.44;100.00
6034;BME280;3045;43.226;27.858;2023-02-04T07:59:36;32291.03;;;4.46;100.00
6034;BME280;3045;43.226;27.858;2023-02-04T08:02:03;32905.50;;;4.42;100.00
6034;BME280;3045;43.226;27.858;2023-02-04T08:04:31;31689.22;;;4.41;100.00
6034;BME280;3045;43.226;27.858;2023-02-04T08:06:59;28804.84;;;4.39;100.00
6034;BME280;3045;43.226;27.858;2023-02-04T08:09:26;29276.91;;;4.50;100.00
6034;BME280;3045;43.226;27.858;2023-02-04T08:11:53;29878.13;;;4.41;100.00
6034;BME280;3045;43.226;27.858;2023-02-04T08:14:20;31529.09;;;4.31;100.00
6034;BME280;3045;43.226;27.858;2023-02-04T08:16:46;29407.69;;;4.38;100.00
6034;BME280;3045;43.226;27.858;2023-02-04T08:19:13;28439.72;;;4.56;100.00
6034;BME280;3045;43.226;27.858;2023-02-04T08:21:43;29099.91;;;4.59;100.00
6034;BME280;3045;43.226;27.858;2023-02-04T08:24:12;29866.00;;;4.55;100.00
6034;BME280;3045;43.226;27.858;2023-02-04T08:26:40;28494.66;;;4.61;100.00
6034;BME280;3045;43.226;27.858;2023-02-04T08:29:07;28385.84;;;4.29;100.00
6034;BME280;3045;43.226;27.858;2023-02-04T08:31:35;27465.44;;;4.67;100.00
6034;BME280;3045;43.226;27.858;2023-02-04T08:34:02;28044.28;;;4.58;100.00
6034;BME280;3045;43.226;27.858;2023-02-04T08:36:31;24835.81;;;4.50;100.00
6034;BME280;3045;43.226;27.858;2023-02-04T08:38:58;25415.09;;;4.53;100.00
6034;BME280;3045;43.226;27.858;2023-02-04T08:41:26;27814.88;;;4.53;100.00
6034;BME280;3045;43.226;27.858;2023-02-04T08:43:53;22983.44;;;4.56;100.00
6034;BME280;3045;43.226;27.858;2023-02-04T08:46:20;22281.31;;;4.55;100.00
6034;BME280;3045;43.226;27.858;2023-02-04T08:48:47;22283.78;;;4.49;100.00
6034;BME280;3045;43.226;27.858;2023-02-04T08:51:14;21570.25;;;4.51;100.00
6034;BME280;3045;43.226;27.858;2023-02-04T08:53:41;21824.47;;;4.46;100.00
6034;BME280;3045;43.226;27.858;2023-02-04T08:56:08;23986.84;;;4.56;100.00
6034;BME280;3045;43.226;27.858;2023-02-04T08:58:41;24779.31;;;4.68;100.00
6034;BME280;3045;43.226;27.858;2023-02-04T09:01:08;23240.53;;;4.57;100.00
6034;BME280;3045;43.226;27.858;2023-02-04T09:03:37;21721.44;;;4.74;100.00
6034;BME280;3045;43.226;27.858;2023-02-04T09:06:04;24764.84;;;4.80;100.00
6034;BME280;3045;43.226;27.858;2023-02-04T09:08:32;25983.66;;;4.75;100.00
6034;BME280;3045;43.226;27.858;2023-02-04T09:10:59;24760.13;;;4.86;100.00
6034;BME280;3045;43.226;27.858;2023-02-04T09:13:26;20411.63;;;4.79;100.00
6034;BME280;3045;43.226;27.858;2023-02-04T09:15:54;19279.94;;;4.93;100.00
6034;BME280;3045;43.226;27.858;2023-02-04T09:18:21;18476.00;;;4.99;100.00
6034;BME280;3045;43.226;27.858;2023-02-04T09:20:50;18171.47;;;4.96;100.00
6034;BME280;3045;43.226;27.858;2023-02-04T09:23:18;17034.09;;;4.86;100.00
6034;BME280;3045;43.226;27.858;2023-02-04T09:25:45;16974.72;;;5.02;100.00
6034;BME280;3045;43.226;27.858;2023-02-04T09:28:13;16003.47;;;5.05;100.00
6034;BME280;3045;43.226;27.858;2023-02-04T09:30:43;19874.66;;;4.93;100.00
6034;BME280;3045;43.226;27.858;2023-02-04T09:33:13;20855.38;;;5.00;100.00
6034;BME280;3045;43.226;27.858;2023-02-04T09:35:41;19093.81;;;5.09;100.00
6034;BME280;3045;43.226;27.858;2023-02-04T09:38:08;21359.50;;;5.03;100.00
6034;BME280;3045;43.226;27.858;2023-02-04T09:40:41;20964.66;;;5.12;100.00
6034;BME280;3045;43.226;27.858;2023-02-04T09:43:11;19793.91;;;5.17;100.00
6034;BME280;3045;43.226;27.858;2023-02-04T09:45:39;19084.81;;;5.18;100.00
6034;BME280;3045;43.226;27.858;2023-02-04T09:48:08;21323.50;;;5.25;100.00
6034;BME280;3045;43.226;27.858;2023-02-04T09:50:40;21786.63;;;5.25;100.00
6034;BME280;3045;43.226;27.858;2023-02-04T09:53:17;19950.78;;;5.44;100.00
6034;BME280;3045;43.226;27.858;2023-02-04T09:55:47;18294.38;;;5.78;100.00
6034;BME280;3045;43.226;27.858;2023-02-04T09:58:16;23737.63;;;5.98;100.00
6034;BME280;3045;43.226;27.858;2023-02-04T10:00:44;25020.66;;;5.98;100.00
6034;BME280;3045;43.226;27.858;2023-02-04T10:03:14;22679.22;;;6.33;100.00
6034;BME280;3045;43.226;27.858;2023-02-04T10:05:44;24969.63;;;7.50;100.00
6034;BME280;3045;43.226;27.858;2023-02-04T10:08:13;68895.09;;;8.11;100.00
6034;BME280;3045;43.226;27.858;2023-02-04T10:10:42;96595.50;;;7.96;100.00
6034;BME280;3045;43.226;27.858;2023-02-04T10:13:14;116937.66;;;7.87;100.00
6034;BME280;3045;43.226;27.858;2023-02-04T10:15:43;114266.34;;;7.67;100.00
6034;BME280;3045;43.226;27.858;2023-02-04T10:18:14;105467.66;;;8.07;100.00
6034;BME280;3045;43.226;27.858;2023-02-04T10:20:44;133281.63;;;7.95;100.00
6034;BME280;3045;43.226;27.858;2023-02-04T10:23:11;133329.75;;;7.64;100.00
6034;BME280;3045;43.226;27.858;2023-02-04T10:25:38;135565.47;;;7.59;100.00
6034;BME280;3045;43.226;27.858;2023-02-04T10:28:05;123102.97;;;7.41;100.00
6034;BME280;3045;43.226;27.858;2023-02-04T10:30:38;116510.91;;;7.38;100.00
6034;BME280;3045;43.226;27.858;2023-02-04T10:33:19;93210.31;;;7.24;100.00
6034;BME280;3045;43.226;27.858;2023-02-04T10:35:51;88611.91;;;7.06;100.00
6034;BME280;3045;43.226;27.858;2023-02-04T10:38:19;87613.16;;;6.93;100.00
6034;BME280;3045;43.226;27.858;2023-02-04T10:40:46;83388.91;;;7.01;100.00
6034;BME280;3045;43.226;27.858;2023-02-04T10:43:15;80788.03;;;7.03;100.00
6034;BME280;3045;43.226;27.858;2023-02-04T10:45:45;79145.59;;;6.92;100.00
6034;BME280;3045;43.226;27.858;2023-02-04T10:48:16;74279.75;;;6.99;100.00
6034;BME280;3045;43.226;27.858;2023-02-04T10:50:45;66499.84;;;7.04;100.00
6034;BME280;3045;43.226;27.858;2023-02-04T10:53:15;67799.94;;;7.07;100.00
6034;BME280;3045;43.226;27.858;2023-02-04T10:56:00;72988.97;;;7.05;100.00
6034;BME280;3045;43.226;27.858;2023-02-04T10:58:29;81442.47;;;7.06;100.00
6034;BME280;3045;43.226;27.858;2023-02-04T11:00:56;83410.41;;;7.16;100.00
6034;BME280;3045;43.226;27.858;2023-02-04T11:03:25;88928.94;;;7.00;100.00
6034;BME280;3045;43.226;27.858;2023-02-04T11:05:55;85041.00;;;7.17;100.00
6034;BME280;3045;43.226;27.858;2023-02-04T11:08:25;82749.00;;;7.09;100.00
6034;BME280;3045;43.226;27.858;2023-02-04T11:10:57;77851.66;;;6.97;100.00
6034;BME280;3045;43.226;27.858;2023-02-04T11:13:25;74918.44;;;6.90;100.00
6034;BME280;3045;43.226;27.858;2023-02-04T11:16:11;72332.16;;;6.99;100.00
6034;BME280;3045;43.226;27.858;2023-02-04T11:18:51;75592.81;;;7.09;100.00
6034;BME280;3045;43.226;27.858;2023-02-04T11:21:24;79160.56;;;7.03;100.00
6034;BME280;3045;43.226;27.858;2023-02-04T11:24:05;73951.16;;;6.96;100.00
6034;BME280;3045;43.226;27.858;2023-02-04T11:26:33;68747.84;;;6.86;100.00
6034;BME280;3045;43.226;27.858;2023-02-04T11:29:21;65518.09;;;6.96;100.00
6034;BME280;3045;43.226;27.858;2023-02-04T11:31:59;71029.66;;;6.96;100.00
6034;BME280;3045;43.226;27.858;2023-02-04T11:34:42;75891.03;;;6.88;100.00
6034;BME280;3045;43.226;27.858;2023-02-04T11:37:16;76549.44;;;6.95;100.00
6034;BME280;3045;43.226;27.858;2023-02-04T11:39:46;73306.75;;;7.00;100.00
6034;BME280;3045;43.226;27.858;2023-02-04T11:42:20;71361.50;;;7.02;100.00
6034;BME280;3045;43.226;27.858;2023-02-04T11:44:51;67792.31;;;7.01;100.00
6034;BME280;3045;43.226;27.858;2023-02-04T11:47:19;66480.88;;;6.87;100.00
6034;BME280;3045;43.226;27.858;2023-02-04T11:49:53;68391.75;;;6.59;100.00
6034;BME280;3045;43.226;27.858;2023-02-04T11:52:20;66799.72;;;6.83;100.00
6034;BME280;3045;43.226;27.858;2023-02-04T11:54:57;65187.41;;;6.89;100.00
6034;BME280;3045;43.226;27.858;2023-02-04T11:57:24;63245.75;;;6.91;100.00
6034;BME280;3045;43.226;27.858;2023-02-04T11:59:52;65196.41;;;6.98;100.00
6034;BME280;3045;43.226;27.858;2023-02-04T12:02:21;65194.16;;;6.96;100.00
6034;BME280;3045;43.226;27.858;2023-02-04T12:04:53;63903.16;;;7.00;100.00
6034;BME280;3045;43.226;27.858;2023-02-04T12:07:25;61956.53;;;6.96;100.00
6034;BME280;3045;43.226;27.858;2023-02-04T12:09:52;60347.25;;;7.04;100.00
6034;BME280;3045;43.226;27.858;2023-02-04T12:12:26;60348.28;;;7.05;100.00
6034;BME280;3045;43.226;27.858;2023-02-04T12:15:00;62624.41;;;7.15;100.00
6034;BME280;3045;43.226;27.858;2023-02-04T12:17:28;64890.47;;;7.14;100.00
6034;BME280;3045;43.226;27.858;2023-02-04T12:19:55;62623.31;;;7.14;100.00
6034;BME280;3045;43.226;27.858;2023-02-04T12:22:22;61986.59;;;7.24;100.00
6034;BME280;3045;43.226;27.858;2023-02-04T12:24:49;64564.25;;;7.12;100.00
6034;BME280;3045;43.226;27.858;2023-02-04T12:27:17;62961.84;;;7.27;100.00
6034;BME280;3045;43.226;27.858;2023-02-04T12:29:45;62315.22;;;7.28;100.00
6034;BME280;3045;43.226;27.858;2023-02-04T12:32:12;61346.03;;;7.30;100.00
6034;BME280;3045;43.226;27.858;2023-02-04T12:34:39;63937.44;;;7.31;100.00
6034;BME280;3045;43.226;27.858;2023-02-04T12:37:05;66511.91;;;7.15;100.00
6034;BME280;3045;43.226;27.858;2023-02-04T12:39:32;65869.97;;;7.20;100.00
6034;BME280;3045;43.226;27.858;2023-02-04T12:41:59;68467.97;;;7.24;100.00
6034;BME280;3045;43.226;27.858;2023-02-04T12:44:26;73981.06;;;7.19;100.00
6034;BME280;3045;43.226;27.858;2023-02-04T12:46:55;71032.09;;;6.98;100.00
6034;BME280;3045;43.226;27.858;2023-02-04T12:49:21;73323.19;;;7.13;100.00
6034;BME280;3045;43.226;27.858;2023-02-04T12:51:49;86338.97;;;7.13;100.00
6034;BME280;3045;43.226;27.858;2023-02-04T12:54:22;108558.41;;;7.02;100.00
6034;BME280;3045;43.226;27.858;2023-02-04T12:56:49;121419.00;;;7.23;100.00
6034;BME280;3045;43.226;27.858;2023-02-04T12:59:17;129343.59;;;7.28;100.00
6034;BME280;3045;43.226;27.858;2023-02-04T13:01:44;143834.53;;;7.35;100.00
6034;BME280;3045;43.226;27.858;2023-02-04T13:04:13;147894.09;;;7.35;100.00
6034;BME280;3045;43.226;27.858;2023-02-04T13:06:39;147885.28;;;7.31;100.00
6034;BME280;3045;43.226;27.858;2023-02-04T13:09:06;147863.84;;;7.23;100.00